Time;durP1;ratioP1;P1;durP2;ratioP2;P2;SDS_P1;SDS_P2;PMS_P1;PMS_P2;Temp;Humidity;BMP_temperature;BMP_pressure;BME280_temperature;BME280_humidity;BME280_pressure;Samples;Min_cycle;Max_cycle;Signal;HPM_P1;HPM_P2
2022/08/16 00:05:43;;;;;;;10.00;4.23;;;17.00;99.90;;;;;;20962899;28;20039;-74
2022/08/16 00:15:47;;;;;;;8.90;4.78;;;16.50;99.90;;;;;;20952401;28;20039;-74
2022/08/16 00:25:47;;;;;;;10.43;5.13;;;16.40;99.90;;;;;;20966609;28;20045;-74
2022/08/16 00:35:48;;;;;;;7.87;4.67;;;16.20;99.90;;;;;;20941550;28;20569;-74
2022/08/16 00:46:11;;;;;;;7.73;4.80;;;16.40;99.90;;;;;;20905649;28;20116;-75
2022/08/16 00:56:17;;;;;;;8.75;4.80;;;16.70;99.90;;;;;;20904493;28;20060;-74
2022/08/16 01:06:20;;;;;;;11.43;4.93;;;16.40;99.90;;;;;;20904162;28;20048;-74
2022/08/16 01:16:25;;;;;;;9.75;4.45;;;16.00;99.90;;;;;;20922470;28;20039;-74
2022/08/16 01:26:29;;;;;;;6.47;4.75;;;16.20;99.90;;;;;;20920139;28;20037;-74
2022/08/16 01:36:31;;;;;;;6.75;4.63;;;16.20;99.90;;;;;;20919696;28;20033;-74
2022/08/16 01:46:33;;;;;;;7.18;4.32;;;16.20;99.90;;;;;;20901225;28;20041;-74
2022/08/16 01:56:38;;;;;;;9.55;4.55;;;16.30;99.90;;;;;;20884777;28;20530;-74
2022/08/16 02:06:41;;;;;;;9.68;5.30;;;16.10;99.90;;;;;;20900754;28;20175;-74
2022/08/16 02:16:43;;;;;;;8.10;4.63;;;15.90;99.90;;;;;;20917548;28;20064;-75
2022/08/16 02:26:44;;;;;;;7.90;5.15;;;15.80;99.90;;;;;;20899771;28;20032;-75
2022/08/16 02:36:46;;;;;;;6.93;5.13;;;15.70;99.90;;;;;;20880711;28;20091;-74
2022/08/16 02:46:48;;;;;;;8.63;5.30;;;15.70;99.90;;;;;;20897390;28;20108;-74
2022/08/16 02:56:49;;;;;;;7.63;4.87;;;15.30;99.90;;;;;;20897080;28;20098;-74
2022/08/16 03:06:52;;;;;;;7.53;5.07;;;15.50;99.90;;;;;;20896646;28;20041;-75
2022/08/16 03:17:06;;;;;;;7.10;4.82;;;15.60;99.90;;;;;;20882204;28;20044;-75
2022/08/16 03:27:10;;;;;;;8.52;4.10;;;15.80;99.90;;;;;;20894988;28;20091;-74
2022/08/16 03:37:12;;;;;;;6.57;4.10;;;15.80;99.90;;;;;;20894197;28;20052;-75
2022/08/16 03:47:14;;;;;;;7.40;4.47;;;15.70;99.90;;;;;;20893457;28;20041;-74
2022/08/16 03:57:15;;;;;;;;;;;15.40;99.90;;;;;;20894319;28;20442;-74
2022/08/16 04:07:16;;;;;;;8.27;4.75;;;15.20;99.90;;;;;;20895228;28;19909;-74
2022/08/16 04:17:20;;;;;;;7.10;4.47;;;15.10;99.90;;;;;;20877694;28;20043;-74
2022/08/16 04:27:21;;;;;;;11.27;5.87;;;15.10;99.90;;;;;;20891981;28;20033;-74
2022/08/16 04:37:22;;;;;;;9.32;5.55;;;15.00;99.90;;;;;;20891503;28;20403;-74
2022/08/16 04:47:30;;;;;;;9.02;4.95;;;15.10;99.90;;;;;;20875881;28;20057;-74
2022/08/16 04:57:32;;;;;;;8.52;5.70;;;15.10;99.90;;;;;;20908195;28;20450;-74
2022/08/16 05:07:33;;;;;;;7.77;5.73;;;15.10;99.90;;;;;;20902040;28;20041;-74
2022/08/16 05:17:37;;;;;;;10.40;4.97;;;15.10;99.90;;;;;;20903895;28;20033;-74
2022/08/16 05:27:43;;;;;;;11.55;6.50;;;15.30;99.90;;;;;;20905771;28;20503;-75
2022/08/16 05:37:47;;;;;;;11.07;6.65;;;15.60;99.90;;;;;;21042107;23;20043;-74
2022/08/16 05:47:50;;;;;;;8.38;5.60;;;15.80;99.90;;;;;;21047981;28;20044;-75
2022/08/16 05:57:51;;;;;;;10.33;6.40;;;16.00;99.90;;;;;;21082072;28;20036;-74
2022/08/16 06:07:51;;;;;;;9.40;6.20;;;16.30;99.90;;;;;;21063531;28;20043;-75
2022/08/16 06:18:00;;;;;;;12.40;6.25;;;16.60;99.90;;;;;;21062320;28;20517;-75
2022/08/16 06:28:04;;;;;;;9.90;6.65;;;16.70;99.90;;;;;;21061501;28;20043;-75
2022/08/16 06:38:05;;;;;;;14.07;7.15;;;17.20;99.90;;;;;;21078542;28;20047;-74
2022/08/16 06:48:07;;;;;;;9.65;5.95;;;17.40;99.90;;;;;;21136956;28;20077;-74
2022/08/16 06:58:08;;;;;;;9.15;5.13;;;18.20;99.90;;;;;;21161521;28;20432;-73
2022/08/16 07:08:10;;;;;;;6.63;4.50;;;18.90;99.90;;;;;;21142200;28;20070;-73
2022/08/16 07:18:14;;;;;;;9.30;5.60;;;19.30;99.90;;;;;;21141772;28;20036;-74
2022/08/16 07:28:17;;;;;;;6.47;4.18;;;20.20;99.90;;;;;;21140847;28;20050;-74
2022/08/16 07:38:18;;;;;;;6.22;3.70;;;21.00;99.90;;;;;;21138720;28;20093;-74
2022/08/16 07:48:28;;;;;;;4.90;3.30;;;21.30;99.90;;;;;;21139857;28;20109;-73
2022/08/16 07:58:30;;;;;;;4.40;2.58;;;21.80;99.90;;;;;;21138621;28;20039;-73
2022/08/16 08:08:31;;;;;;;;;;;22.30;99.90;;;;;;21139221;28;20035;-73
2022/08/16 08:18:33;;;;;;;2.92;2.13;;;22.60;99.90;;;;;;21138933;28;19912;-73
2022/08/16 08:28:36;;;;;;;5.30;2.60;;;23.50;99.90;;;;;;21138212;28;20493;-73
2022/08/16 08:38:39;;;;;;;3.72;2.28;;;23.90;99.90;;;;;;21144367;28;20042;-73
2022/08/16 08:48:40;;;;;;;7.32;2.22;;;24.10;99.90;;;;;;21144441;28;20043;-74
2022/08/16 08:58:45;;;;;;;8.60;2.47;;;25.00;99.90;;;;;;21101880;28;20652;-73
2022/08/16 09:08:52;;;;;;;3.85;2.15;;;26.60;99.90;;;;;;21120874;28;20093;-73
2022/08/16 09:18:54;;;;;;;3.05;2.10;;;27.50;99.90;;;;;;21056983;28;20040;-73
2022/08/16 09:28:56;;;;;;;5.72;2.63;;;27.70;99.90;;;;;;21082547;28;20036;-73
2022/08/16 09:38:59;;;;;;;2.33;1.92;;;26.00;99.90;;;;;;21089872;28;20559;-73
2022/08/16 09:49:00;;;;;;;3.22;2.20;;;28.10;99.90;;;;;;21082758;28;20427;-73
2022/08/16 09:59:04;;;;;;;3.35;1.92;;;28.30;99.90;;;;;;21063941;28;20064;-73
2022/08/16 10:09:07;;;;;;;5.75;2.70;;;29.70;99.90;;;;;;21063345;28;20032;-73
2022/08/16 10:19:08;;;;;;;4.07;2.28;;;28.90;99.90;;;;;;21062254;28;20051;-73
2022/08/16 10:29:09;;;;;;;5.38;1.98;;;29.90;99.90;;;;;;21085252;28;20382;-74
2022/08/16 10:39:10;;;;;;;8.65;3.65;;;29.70;99.90;;;;;;21129969;28;20118;-73
2022/08/16 10:49:12;;;;;;;5.88;2.35;;;30.70;99.90;;;;;;21126443;28;20097;-74
2022/08/16 10:59:13;;;;;;;23.17;6.55;;;30.10;99.90;;;;;;21076182;28;20040;-73
2022/08/16 11:09:14;;;;;;;5.13;2.08;;;30.70;99.90;;;;;;21076592;28;20079;-73
2022/08/16 11:19:16;;;;;;;6.30;2.22;;;29.60;99.90;;;;;;21057623;28;20486;-73
2022/08/16 11:29:17;;;;;;;2.47;2.05;;;31.50;99.90;;;;;;21100345;28;20044;-73
2022/08/16 11:39:18;;;;;;;2.97;1.90;;;30.30;99.00;;;;;;21112863;28;20059;-74
2022/08/16 11:49:19;;;;;;;3.13;1.70;;;30.00;98.30;;;;;;21139389;28;20084;-74
2022/08/16 11:59:20;;;;;;;6.47;2.20;;;30.70;98.00;;;;;;21141634;28;20390;-74
2022/08/16 12:09:22;;;;;;;3.75;2.38;;;30.90;96.90;;;;;;21078116;28;20070;-74
2022/08/16 12:19:24;;;;;;;3.03;1.90;;;31.20;95.80;;;;;;21131832;28;20043;-73
2022/08/16 12:29:25;;;;;;;3.63;1.90;;;31.20;95.80;;;;;;21108482;28;20088;-73
2022/08/16 12:39:26;;;;;;;4.53;2.28;;;31.40;95.30;;;;;;21091987;28;20077;-73
2022/08/16 12:49:27;;;;;;;4.70;1.95;;;31.80;95.00;;;;;;21122904;28;20048;-73
2022/08/16 12:59:28;;;;;;;3.85;1.85;;;32.30;94.70;;;;;;21131156;28;20034;-72
2022/08/16 13:09:31;;;;;;;5.78;1.90;;;31.40;94.60;;;;;;21149835;28;20100;-73
2022/08/16 13:19:33;;;;;;;4.78;1.90;;;32.20;93.80;;;;;;21148412;28;20521;-73
2022/08/16 13:29:34;;;;;;;3.00;1.95;;;31.60;92.30;;;;;;21128711;28;20536;-73
2022/08/16 13:39:35;;;;;;;2.67;1.85;;;32.20;93.00;;;;;;21091221;28;20040;-73
2022/08/16 13:49:36;;;;;;;3.20;1.85;;;32.40;93.00;;;;;;21083443;28;20047;-72
2022/08/16 13:59:37;;;;;;;3.00;2.00;;;31.90;91.90;;;;;;21085339;28;20430;-73
2022/08/16 14:09:38;;;;;;;2.63;1.80;;;32.50;91.60;;;;;;21065597;28;20064;-73
2022/08/16 14:19:39;;;;;;;3.15;2.10;;;32.20;90.00;;;;;;21083927;28;20574;-73
2022/08/16 14:29:40;;;;;;;2.95;2.20;;;31.80;90.90;;;;;;21081782;28;20035;-73
2022/08/16 14:39:41;;;;;;;3.65;2.03;;;32.10;91.70;;;;;;21082766;28;20058;-72
2022/08/16 14:49:42;;;;;;;4.90;2.35;;;32.40;90.20;;;;;;21080413;28;20039;-72
2022/08/16 14:59:43;;;;;;;6.55;1.70;;;32.60;88.80;;;;;;21136112;28;20051;-72
2022/08/16 15:09:45;;;;;;;3.38;1.70;;;33.30;89.10;;;;;;21076133;28;20063;-72
2022/08/16 15:19:51;;;;;;;3.83;1.90;;;33.40;88.20;;;;;;21082921;28;20375;-72
2022/08/16 15:29:52;;;;;;;5.63;2.08;;;32.40;88.90;;;;;;21103021;28;20039;-72
2022/08/16 15:39:53;;;;;;;11.25;2.05;;;32.50;87.30;;;;;;21119994;28;20081;-73
2022/08/16 15:49:55;;;;;;;6.40;2.10;;;33.00;86.10;;;;;;21115739;28;20032;-73
2022/08/16 15:59:57;;;;;;;7.25;2.60;;;32.40;88.70;;;;;;21120681;28;20278;-72
2022/08/16 16:09:59;;;;;;;4.03;2.10;;;32.30;87.70;;;;;;21113386;28;20036;-73
2022/08/16 16:20:00;;;;;;;2.25;1.60;;;31.60;87.50;;;;;;21096287;28;20032;-72
2022/08/16 16:30:02;;;;;;;7.20;2.20;;;31.10;88.80;;;;;;21073933;28;20048;-73
2022/08/16 16:40:03;;;;;;;3.83;2.10;;;30.80;90.60;;;;;;21044045;28;20036;-72
2022/08/16 16:50:08;;;;;;;3.55;1.67;;;30.70;90.00;;;;;;21037965;28;20486;-72
2022/08/16 17:00:10;;;;;;;3.13;2.00;;;30.30;90.40;;;;;;21107316;28;20055;-72
2022/08/16 17:10:12;;;;;;;3.22;1.90;;;29.90;89.90;;;;;;21142505;28;20528;-72
2022/08/16 17:20:13;;;;;;;6.10;2.30;;;29.50;90.30;;;;;;21064527;28;20051;-72
2022/08/16 17:30:17;;;;;;;3.55;2.08;;;29.30;90.40;;;;;;21047093;28;20046;-72
2022/08/16 17:40:26;;;;;;;8.35;2.13;;;29.10;90.40;;;;;;21084297;28;20050;-72
2022/08/16 17:50:28;;;;;;;3.15;2.20;;;28.90;90.60;;;;;;21105208;28;20039;-72
2022/08/16 18:00:30;;;;;;;6.75;1.95;;;28.50;91.30;;;;;;21090037;28;20047;-73
2022/08/16 18:10:32;;;;;;;4.88;2.10;;;28.20;91.70;;;;;;21062860;28;20462;-72
2022/08/16 18:30:54;;;;;;;3.85;1.90;;;27.00;94.30;;;;;;21079506;28;20063;-73
2022/08/16 18:40:54;;;;;;;5.80;2.63;;;26.30;94.50;;;;;;21079852;28;20093;-72
2022/08/16 18:50:56;;;;;;;7.97;2.42;;;25.80;95.00;;;;;;21131662;28;20032;-72
2022/08/16 19:00:57;;;;;;;3.30;2.40;;;24.80;96.20;;;;;;21131517;28;20043;-73
2022/08/16 19:10:58;;;;;;;4.70;2.93;;;24.80;96.50;;;;;;21083051;28;20064;-72
2022/08/16 19:20:59;;;;;;;15.67;3.20;;;24.70;96.60;;;;;;21039135;28;20302;-72
2022/08/16 19:31:01;;;;;;;6.70;2.67;;;24.50;97.30;;;;;;21067413;28;20112;-72
2022/08/16 19:41:02;;;;;;;16.80;2.72;;;24.30;97.70;;;;;;21114862;28;20031;-72
2022/08/16 19:51:03;;;;;;;;;;;24.20;98.00;;;;;;21096273;28;20043;-72
2022/08/16 20:01:04;;;;;;;7.13;2.73;;;24.20;98.20;;;;;;21113818;28;19918;-73
2022/08/16 20:11:05;;;;;;;7.43;2.65;;;23.80;98.80;;;;;;21113079;28;20034;-72
2022/08/16 20:21:06;;;;;;;11.47;3.07;;;23.60;98.90;;;;;;21094262;28;20157;-72
2022/08/16 20:31:06;;;;;;;3.87;2.87;;;23.50;99.40;;;;;;21150927;28;20040;-72
2022/08/16 20:41:08;;;;;;;6.10;2.80;;;22.90;99.90;;;;;;21154571;28;20093;-72
2022/08/16 20:51:11;;;;;;;;;;;22.60;99.90;;;;;;21154026;28;20031;-73
2022/08/16 21:01:12;;;;;;;6.00;3.05;;;22.70;99.90;;;;;;21128584;28;20401;-72
2022/08/16 21:11:15;;;;;;;6.43;2.72;;;22.20;99.90;;;;;;21126986;28;20068;-71
2022/08/16 21:21:15;;;;;;;7.22;2.70;;;22.20;99.90;;;;;;21093772;28;20040;-72
2022/08/16 21:31:17;;;;;;;7.47;2.83;;;22.00;99.90;;;;;;21103280;28;20055;-72
2022/08/16 21:41:17;;;;;;;6.55;2.97;;;21.90;99.90;;;;;;21165762;28;20039;-72
2022/08/16 21:51:18;;;;;;;6.50;3.30;;;22.00;99.90;;;;;;21163077;28;20514;-71
2022/08/16 22:01:23;;;;;;;7.07;3.10;;;22.00;99.90;;;;;;21158880;28;20031;-71
2022/08/16 22:11:24;;;;;;;6.78;2.80;;;22.10;99.90;;;;;;21165247;28;20122;-71
2022/08/16 22:21:25;;;;;;;10.90;2.83;;;22.00;99.90;;;;;;21164646;28;20046;-71
2022/08/16 22:31:26;;;;;;;4.55;3.28;;;21.80;99.90;;;;;;21163753;28;20501;-72
2022/08/16 22:41:30;;;;;;;5.30;3.42;;;21.70;99.90;;;;;;21162993;28;20074;-72
2022/08/16 22:51:31;;;;;;;7.22;3.38;;;21.50;99.90;;;;;;21162219;28;20040;-73
2022/08/16 23:01:32;;;;;;;4.20;3.13;;;21.20;99.90;;;;;;21160755;28;20040;-72
2022/08/16 23:11:33;;;;;;;4.13;3.20;;;21.40;99.90;;;;;;21160906;28;20463;-72
2022/08/16 23:21:35;;;;;;;5.75;3.10;;;21.20;99.90;;;;;;21160051;28;20055;-72
2022/08/16 23:31:37;;;;;;;7.80;3.08;;;21.10;99.90;;;;;;21159748;28;20159;-73
2022/08/16 23:41:37;;;;;;;;;;;21.10;99.90;;;;;;21159497;28;20032;-73
2022/08/16 23:51:38;;;;;;;6.20;3.50;;;21.10;99.90;;;;;;21141526;28;19911;-73
